sensor_id;sensor_type;location;lat;lon;timestamp;pressure;altitude;pressure_sealevel;temperature;humidity
55801;BME280;41730;51.960;20.158;2023-06-19T00:02:16;100104.36;;;15.83;78.72
55801;BME280;41730;51.960;20.158;2023-06-19T00:04:48;100104.54;;;15.76;78.66
55801;BME280;41730;51.960;20.158;2023-06-19T00:07:19;100109.11;;;15.78;78.60
55801;BME280;41730;51.960;20.158;2023-06-19T00:09:52;100110.36;;;15.78;78.53
55801;BME280;41730;51.960;20.158;2023-06-19T00:12:23;100110.56;;;15.71;78.87
55801;BME280;41730;51.960;20.158;2023-06-19T00:14:55;100108.19;;;15.69;78.89
55801;BME280;41730;51.960;20.158;2023-06-19T00:17:27;100108.27;;;15.66;78.89
55801;BME280;41730;51.960;20.158;2023-06-19T00:19:59;100110.05;;;15.66;78.65
55801;BME280;41730;51.960;20.158;2023-06-19T00:22:31;100108.69;;;15.62;78.74
55801;BME280;41730;51.960;20.158;2023-06-19T00:25:04;100109.04;;;15.57;78.69
55801;BME280;41730;51.960;20.158;2023-06-19T00:27:36;100111.45;;;15.46;78.81
55801;BME280;41730;51.960;20.158;2023-06-19T00:30:10;100114.77;;;15.34;79.14
55801;BME280;41730;51.960;20.158;2023-06-19T00:32:42;100113.18;;;15.29;79.20
55801;BME280;41730;51.960;20.158;2023-06-19T00:35:24;100111.52;;;15.45;78.69
55801;BME280;41730;51.960;20.158;2023-06-19T00:37:59;100113.20;;;15.42;78.34
55801;BME280;41730;51.960;20.158;2023-06-19T00:40:33;100115.58;;;15.28;78.95
55801;BME280;41730;51.960;20.158;2023-06-19T00:43:05;100115.13;;;15.36;78.55
55801;BME280;41730;51.960;20.158;2023-06-19T00:45:37;100114.02;;;15.41;78.29
55801;BME280;41730;51.960;20.158;2023-06-19T00:48:09;100110.58;;;15.41;78.17
55801;BME280;41730;51.960;20.158;2023-06-19T00:50:41;100110.06;;;15.42;77.90
55801;BME280;41730;51.960;20.158;2023-06-19T00:53:13;100105.96;;;15.30;78.20
55801;BME280;41730;51.960;20.158;2023-06-19T00:55:46;100107.34;;;15.21;78.32
55801;BME280;41730;51.960;20.158;2023-06-19T00:58:17;100107.45;;;15.13;78.80
55801;BME280;41730;51.960;20.158;2023-06-19T01:00:49;100107.89;;;15.14;78.79
55801;BME280;41730;51.960;20.158;2023-06-19T01:03:37;100105.51;;;15.22;78.28
55801;BME280;41730;51.960;20.158;2023-06-19T01:06:13;100105.64;;;15.20;78.18
55801;BME280;41730;51.960;20.158;2023-06-19T01:08:51;100104.79;;;15.08;78.59
55801;BME280;41730;51.960;20.158;2023-06-19T01:11:27;100104.47;;;14.96;78.97
55801;BME280;41730;51.960;20.158;2023-06-19T01:14:09;100108.88;;;14.92;79.09
55801;BME280;41730;51.960;20.158;2023-06-19T01:16:43;100109.73;;;14.99;78.75
55801;BME280;41730;51.960;20.158;2023-06-19T01:19:19;100107.39;;;15.05;78.49
55801;BME280;41730;51.960;20.158;2023-06-19T01:21:51;100106.36;;;15.08;78.27
55801;BME280;41730;51.960;20.158;2023-06-19T01:24:23;100109.86;;;15.03;78.26
55801;BME280;41730;51.960;20.158;2023-06-19T01:26:55;100110.11;;;14.92;78.55
55801;BME280;41730;51.960;20.158;2023-06-19T01:29:27;100112.88;;;14.84;78.89
55801;BME280;41730;51.960;20.158;2023-06-19T01:32:04;100119.87;;;14.80;79.00
55801;BME280;41730;51.960;20.158;2023-06-19T01:34:38;100115.87;;;14.81;78.84
55801;BME280;41730;51.960;20.158;2023-06-19T01:37:12;100115.89;;;14.79;78.72
55801;BME280;41730;51.960;20.158;2023-06-19T01:39:46;100115.06;;;14.72;79.05
55801;BME280;41730;51.960;20.158;2023-06-19T01:42:17;100117.47;;;14.66;79.13
55801;BME280;41730;51.960;20.158;2023-06-19T01:44:50;100122.75;;;14.65;78.89
55801;BME280;41730;51.960;20.158;2023-06-19T01:47:23;100123.61;;;14.60;79.30
55801;BME280;41730;51.960;20.158;2023-06-19T01:49:54;100124.66;;;14.69;79.01
55801;BME280;41730;51.960;20.158;2023-06-19T01:52:27;100123.98;;;14.76;78.56
55801;BME280;41730;51.960;20.158;2023-06-19T01:54:59;100120.55;;;14.71;78.70
55801;BME280;41730;51.960;20.158;2023-06-19T01:57:31;100115.29;;;14.73;78.65
55801;BME280;41730;51.960;20.158;2023-06-19T02:00:05;100115.08;;;14.71;78.52
55801;BME280;41730;51.960;20.158;2023-06-19T02:02:37;100122.11;;;14.64;78.62
55801;BME280;41730;51.960;20.158;2023-06-19T02:05:09;100123.52;;;14.57;78.66
55801;BME280;41730;51.960;20.158;2023-06-19T02:07:41;100120.48;;;14.45;78.96
55801;BME280;41730;51.960;20.158;2023-06-19T02:10:13;100119.30;;;14.40;79.42
55801;BME280;41730;51.960;20.158;2023-06-19T02:12:45;100120.81;;;14.44;79.22
55801;BME280;41730;51.960;20.158;2023-06-19T02:15:18;100115.27;;;14.44;79.32
55801;BME280;41730;51.960;20.158;2023-06-19T02:17:49;100112.84;;;14.47;79.04
55801;BME280;41730;51.960;20.158;2023-06-19T02:20:25;100114.83;;;14.39;79.30
55801;BME280;41730;51.960;20.158;2023-06-19T02:22:57;100115.55;;;14.35;79.55
55801;BME280;41730;51.960;20.158;2023-06-19T02:25:29;100115.21;;;14.33;79.46
55801;BME280;41730;51.960;20.158;2023-06-19T02:28:01;100112.14;;;14.30;79.73
55801;BME280;41730;51.960;20.158;2023-06-19T02:30:33;100112.91;;;14.40;79.65
55801;BME280;41730;51.960;20.158;2023-06-19T02:33:05;100110.36;;;14.44;79.19
55801;BME280;41730;51.960;20.158;2023-06-19T02:35:36;100109.70;;;14.44;79.28
55801;BME280;41730;51.960;20.158;2023-06-19T02:38:08;100113.05;;;14.45;79.17
55801;BME280;41730;51.960;20.158;2023-06-19T02:40:40;100111.96;;;14.51;79.00
55801;BME280;41730;51.960;20.158;2023-06-19T02:43:11;100114.85;;;14.51;79.01
55801;BME280;41730;51.960;20.158;2023-06-19T02:45:43;100114.03;;;14.62;78.61
55801;BME280;41730;51.960;20.158;2023-06-19T02:48:15;100111.06;;;14.63;78.52
55801;BME280;41730;51.960;20.158;2023-06-19T02:50:48;100115.38;;;14.66;78.41
55801;BME280;41730;51.960;20.158;2023-06-19T02:53:20;100110.89;;;14.69;78.40
55801;BME280;41730;51.960;20.158;2023-06-19T02:55:51;100115.82;;;14.69;78.29
55801;BME280;41730;51.960;20.158;2023-06-19T02:58:23;100121.61;;;14.67;78.42
55801;BME280;41730;51.960;20.158;2023-06-19T03:00:56;100124.26;;;14.73;78.68
55801;BME280;41730;51.960;20.158;2023-06-19T03:03:29;100121.27;;;14.82;78.80
55801;BME280;41730;51.960;20.158;2023-06-19T03:06:01;100125.52;;;15.00;78.97
55801;BME280;41730;51.960;20.158;2023-06-19T03:08:34;100128.08;;;15.18;78.53
55801;BME280;41730;51.960;20.158;2023-06-19T03:11:07;100128.70;;;15.33;77.99
55801;BME280;41730;51.960;20.158;2023-06-19T03:13:47;100126.05;;;15.53;77.13
55801;BME280;41730;51.960;20.158;2023-06-19T03:16:19;100123.69;;;15.66;77.71
55801;BME280;41730;51.960;20.158;2023-06-19T03:18:51;100129.59;;;16.02;77.64
55801;BME280;41730;51.960;20.158;2023-06-19T03:21:23;100125.32;;;16.54;77.15
55801;BME280;41730;51.960;20.158;2023-06-19T03:23:55;100124.73;;;17.27;75.51
55801;BME280;41730;51.960;20.158;2023-06-19T03:26:27;100125.90;;;17.81;74.11
55801;BME280;41730;51.960;20.158;2023-06-19T03:29:06;100128.24;;;18.18;73.46
55801;BME280;41730;51.960;20.158;2023-06-19T03:31:47;100130.89;;;18.53;72.87
55801;BME280;41730;51.960;20.158;2023-06-19T03:34:29;100127.43;;;18.94;72.10
55801;BME280;41730;51.960;20.158;2023-06-19T03:37:12;100125.02;;;19.25;71.48
55801;BME280;41730;51.960;20.158;2023-06-19T03:39:54;100130.35;;;19.34;71.71
55801;BME280;41730;51.960;20.158;2023-06-19T03:42:35;100132.11;;;19.49;71.59
55801;BME280;41730;51.960;20.158;2023-06-19T03:45:12;100131.15;;;19.64;71.47
55801;BME280;41730;51.960;20.158;2023-06-19T03:47:44;100130.59;;;19.85;71.46
55801;BME280;41730;51.960;20.158;2023-06-19T03:50:15;100131.19;;;20.13;70.88
55801;BME280;41730;51.960;20.158;2023-06-19T03:52:51;100136.63;;;20.33;70.36
55801;BME280;41730;51.960;20.158;2023-06-19T03:55:23;100132.42;;;20.54;69.99
55801;BME280;41730;51.960;20.158;2023-06-19T03:57:55;100130.56;;;20.68;69.71
55801;BME280;41730;51.960;20.158;2023-06-19T04:00:27;100131.56;;;20.89;68.93
55801;BME280;41730;51.960;20.158;2023-06-19T04:02:58;100129.84;;;21.04;68.60
55801;BME280;41730;51.960;20.158;2023-06-19T04:05:31;100130.79;;;21.22;67.95
55801;BME280;41730;51.960;20.158;2023-06-19T04:08:03;100132.82;;;21.21;67.98
55801;BME280;41730;51.960;20.158;2023-06-19T04:10:35;100131.95;;;21.36;67.63
55801;BME280;41730;51.960;20.158;2023-06-19T04:13:06;100133.91;;;21.51;67.20
55801;BME280;41730;51.960;20.158;2023-06-19T04:15:38;100127.84;;;21.81;66.41
55801;BME280;41730;51.960;20.158;2023-06-19T04:18:10;100130.19;;;21.82;66.31
55801;BME280;41730;51.960;20.158;2023-06-19T04:20:42;100128.22;;;21.85;65.83
55801;BME280;41730;51.960;20.158;2023-06-19T04:23:14;100132.53;;;21.77;65.84
55801;BME280;41730;51.960;20.158;2023-06-19T04:25:46;100137.10;;;21.80;65.98
55801;BME280;41730;51.960;20.158;2023-06-19T04:28:18;100135.16;;;21.95;65.28
55801;BME280;41730;51.960;20.158;2023-06-19T04:30:49;100134.07;;;21.87;65.52
55801;BME280;41730;51.960;20.158;2023-06-19T04:33:21;100134.36;;;21.90;65.43
55801;BME280;41730;51.960;20.158;2023-06-19T04:35:53;100132.15;;;21.93;65.20
55801;BME280;41730;51.960;20.158;2023-06-19T04:38:25;100133.02;;;21.94;64.95
55801;BME280;41730;51.960;20.158;2023-06-19T04:40:57;100133.36;;;21.99;64.95
55801;BME280;41730;51.960;20.158;2023-06-19T04:43:29;100137.48;;;22.03;64.90
55801;BME280;41730;51.960;20.158;2023-06-19T04:46:01;100137.70;;;22.16;64.56
55801;BME280;41730;51.960;20.158;2023-06-19T04:48:34;100142.89;;;22.34;64.25
55801;BME280;41730;51.960;20.158;2023-06-19T04:51:07;100143.89;;;22.52;63.91
55801;BME280;41730;51.960;20.158;2023-06-19T04:53:38;100146.23;;;22.69;63.55
55801;BME280;41730;51.960;20.158;2023-06-19T04:56:10;100147.46;;;22.71;63.30
55801;BME280;41730;51.960;20.158;2023-06-19T04:58:44;100147.90;;;22.84;62.98
55801;BME280;41730;51.960;20.158;2023-06-19T05:01:17;100152.38;;;23.05;62.50
55801;BME280;41730;51.960;20.158;2023-06-19T05:03:52;100155.62;;;23.14;62.27
55801;BME280;41730;51.960;20.158;2023-06-19T05:06:25;100163.65;;;23.18;62.29
55801;BME280;41730;51.960;20.158;2023-06-19T05:08:56;100167.13;;;23.27;62.04
55801;BME280;41730;51.960;20.158;2023-06-19T05:11:28;100166.85;;;23.38;61.63
55801;BME280;41730;51.960;20.158;2023-06-19T05:14:00;100162.84;;;23.64;61.07
55801;BME280;41730;51.960;20.158;2023-06-19T05:16:32;100160.19;;;23.92;60.32
55801;BME280;41730;51.960;20.158;2023-06-19T05:19:06;100164.07;;;24.07;59.96
55801;BME280;41730;51.960;20.158;2023-06-19T05:21:38;100165.90;;;24.15;59.66
55801;BME280;41730;51.960;20.158;2023-06-19T05:24:11;100163.63;;;24.10;59.59
55801;BME280;41730;51.960;20.158;2023-06-19T05:26:44;100165.23;;;24.13;59.56
55801;BME280;41730;51.960;20.158;2023-06-19T05:29:15;100169.33;;;24.34;59.03
55801;BME280;41730;51.960;20.158;2023-06-19T05:31:48;100170.88;;;24.46;58.70
55801;BME280;41730;51.960;20.158;2023-06-19T05:34:19;100171.77;;;24.55;58.09
55801;BME280;41730;51.960;20.158;2023-06-19T05:36:52;100173.91;;;24.60;57.93
55801;BME280;41730;51.960;20.158;2023-06-19T05:39:24;100175.19;;;24.61;57.60
55801;BME280;41730;51.960;20.158;2023-06-19T05:41:56;100178.64;;;24.63;57.50
55801;BME280;41730;51.960;20.158;2023-06-19T05:44:28;100177.84;;;24.69;57.37
55801;BME280;41730;51.960;20.158;2023-06-19T05:47:05;100181.00;;;24.67;57.36
55801;BME280;41730;51.960;20.158;2023-06-19T05:49:37;100182.96;;;24.84;57.06
55801;BME280;41730;51.960;20.158;2023-06-19T05:52:12;100186.96;;;25.12;56.37
55801;BME280;41730;51.960;20.158;2023-06-19T05:54:45;100181.52;;;25.27;55.92
55801;BME280;41730;51.960;20.158;2023-06-19T05:57:18;100183.98;;;25.32;55.78
55801;BME280;41730;51.960;20.158;2023-06-19T05:59:52;100188.13;;;25.43;55.46
55801;BME280;41730;51.960;20.158;2023-06-19T06:02:25;100189.91;;;25.53;55.20
55801;BME280;41730;51.960;20.158;2023-06-19T06:04:58;100194.23;;;25.60;55.03
55801;BME280;41730;51.960;20.158;2023-06-19T06:07:32;100197.78;;;25.64;55.08
55801;BME280;41730;51.960;20.158;2023-06-19T06:10:07;100196.84;;;25.67;54.69
55801;BME280;41730;51.960;20.158;2023-06-19T06:12:39;100197.77;;;25.60;54.76
55801;BME280;41730;51.960;20.158;2023-06-19T06:15:11;100194.44;;;25.72;54.84
55801;BME280;41730;51.960;20.158;2023-06-19T06:17:43;100194.16;;;25.81;54.43
55801;BME280;41730;51.960;20.158;2023-06-19T06:20:15;100197.50;;;25.60;54.49
55801;BME280;41730;51.960;20.158;2023-06-19T06:22:48;100198.49;;;25.63;54.63
55801;BME280;41730;51.960;20.158;2023-06-19T06:25:21;100196.52;;;25.74;54.30
55801;BME280;41730;51.960;20.158;2023-06-19T06:27:54;100195.17;;;25.96;53.91
55801;BME280;41730;51.960;20.158;2023-06-19T06:30:27;100191.55;;;26.01;53.74
55801;BME280;41730;51.960;20.158;2023-06-19T06:33:00;100197.98;;;25.98;53.96
55801;BME280;41730;51.960;20.158;2023-06-19T06:35:32;100199.04;;;26.08;53.79
55801;BME280;41730;51.960;20.158;2023-06-19T06:38:06;100199.77;;;26.19;53.63
55801;BME280;41730;51.960;20.158;2023-06-19T06:40:38;100193.42;;;26.24;53.69
55801;BME280;41730;51.960;20.158;2023-06-19T06:43:12;100198.06;;;26.45;53.29
55801;BME280;41730;51.960;20.158;2023-06-19T06:45:44;100196.20;;;26.58;53.05
55801;BME280;41730;51.960;20.158;2023-06-19T06:48:17;100194.81;;;26.64;52.77
55801;BME280;41730;51.960;20.158;2023-06-19T06:50:49;100194.12;;;26.75;52.15
55801;BME280;41730;51.960;20.158;2023-06-19T06:53:22;100198.86;;;26.87;51.69
55801;BME280;41730;51.960;20.158;2023-06-19T06:55:54;100199.39;;;26.89;51.31
55801;BME280;41730;51.960;20.158;2023-06-19T06:58:27;100202.77;;;26.76;51.19
55801;BME280;41730;51.960;20.158;2023-06-19T07:00:58;100202.89;;;26.70;50.97
55801;BME280;41730;51.960;20.158;2023-06-19T07:03:36;100204.62;;;26.63;50.85
55801;BME280;41730;51.960;20.158;2023-06-19T07:06:09;100203.80;;;26.67;50.35
55801;BME280;41730;51.960;20.158;2023-06-19T07:08:41;100205.71;;;26.59;50.02
55801;BME280;41730;51.960;20.158;2023-06-19T07:11:18;100204.13;;;26.42;50.49
55801;BME280;41730;51.960;20.158;2023-06-19T07:13:51;100200.86;;;26.56;50.71
55801;BME280;41730;51.960;20.158;2023-06-19T07:16:24;100202.58;;;26.71;50.36
55801;BME280;41730;51.960;20.158;2023-06-19T07:18:57;100203.94;;;26.69;50.61
55801;BME280;41730;51.960;20.158;2023-06-19T07:21:31;100204.84;;;26.75;50.84
55801;BME280;41730;51.960;20.158;2023-06-19T07:24:04;100205.93;;;26.86;49.79
55801;BME280;41730;51.960;20.158;2023-06-19T07:26:36;100206.66;;;26.82;48.96
55801;BME280;41730;51.960;20.158;2023-06-19T07:29:09;100206.68;;;26.64;49.11
55801;BME280;41730;51.960;20.158;2023-06-19T07:31:41;100210.00;;;26.54;49.54
55801;BME280;41730;51.960;20.158;2023-06-19T07:34:13;100215.08;;;26.63;49.37
55801;BME280;41730;51.960;20.158;2023-06-19T07:36:45;100213.66;;;26.78;48.55
55801;BME280;41730;51.960;20.158;2023-06-19T07:39:17;100213.87;;;26.83;48.44
55801;BME280;41730;51.960;20.158;2023-06-19T07:41:49;100212.41;;;26.76;48.82
55801;BME280;41730;51.960;20.158;2023-06-19T07:44:22;100220.10;;;26.81;48.99
55801;BME280;41730;51.960;20.158;2023-06-19T07:46:53;100222.45;;;26.76;48.92
55801;BME280;41730;51.960;20.158;2023-06-19T07:49:25;100224.85;;;26.86;48.85
55801;BME280;41730;51.960;20.158;2023-06-19T07:51:57;100224.20;;;27.00;48.66
55801;BME280;41730;51.960;20.158;2023-06-19T07:54:29;100222.27;;;27.18;48.56
55801;BME280;41730;51.960;20.158;2023-06-19T07:57:01;100224.88;;;27.24;48.56
55801;BME280;41730;51.960;20.158;2023-06-19T07:59:33;100224.09;;;27.14;48.96
55801;BME280;41730;51.960;20.158;2023-06-19T08:02:05;100224.73;;;27.20;49.27
55801;BME280;41730;51.960;20.158;2023-06-19T08:04:37;100219.86;;;27.47;48.90
55801;BME280;41730;51.960;20.158;2023-06-19T08:07:09;100220.86;;;27.69;48.46
55801;BME280;41730;51.960;20.158;2023-06-19T08:09:41;100217.69;;;27.70;48.31
55801;BME280;41730;51.960;20.158;2023-06-19T08:12:13;100216.85;;;27.77;48.22
55801;BME280;41730;51.960;20.158;2023-06-19T08:14:45;100216.02;;;27.89;48.08
55801;BME280;41730;51.960;20.158;2023-06-19T08:17:17;100216.79;;;27.98;47.81
55801;BME280;41730;51.960;20.158;2023-06-19T08:19:49;100214.48;;;28.01;48.28
55801;BME280;41730;51.960;20.158;2023-06-19T08:22:21;100212.77;;;28.11;48.31
55801;BME280;41730;51.960;20.158;2023-06-19T08:24:54;100212.44;;;28.14;47.25
55801;BME280;41730;51.960;20.158;2023-06-19T08:27:26;100207.70;;;28.12;47.32
55801;BME280;41730;51.960;20.158;2023-06-19T08:29:58;100205.92;;;28.15;47.53
55801;BME280;41730;51.960;20.158;2023-06-19T08:32:31;100208.49;;;28.19;47.21
55801;BME280;41730;51.960;20.158;2023-06-19T08:35:06;100211.71;;;28.13;46.82
55801;BME280;41730;51.960;20.158;2023-06-19T08:37:37;100205.36;;;28.42;46.48
55801;BME280;41730;51.960;20.158;2023-06-19T08:40:12;100204.53;;;28.50;46.31
55801;BME280;41730;51.960;20.158;2023-06-19T08:42:44;100202.96;;;28.56;45.05
55801;BME280;41730;51.960;20.158;2023-06-19T08:45:16;100206.09;;;28.52;43.83
55801;BME280;41730;51.960;20.158;2023-06-19T08:47:51;100200.36;;;28.56;44.06
55801;BME280;41730;51.960;20.158;2023-06-19T08:50:29;100202.40;;;28.40;44.59
55801;BME280;41730;51.960;20.158;2023-06-19T08:53:01;100200.40;;;28.31;44.23
55801;BME280;41730;51.960;20.158;2023-06-19T08:55:33;100198.38;;;28.11;43.39
55801;BME280;41730;51.960;20.158;2023-06-19T08:58:05;100201.73;;;27.93;43.12
55801;BME280;41730;51.960;20.158;2023-06-19T09:00:37;100198.44;;;27.75;43.36
55801;BME280;41730;51.960;20.158;2023-06-19T09:03:09;100201.73;;;27.57;43.79
55801;BME280;41730;51.960;20.158;2023-06-19T09:05:44;100200.48;;;27.53;44.28
55801;BME280;41730;51.960;20.158;2023-06-19T09:08:22;100194.86;;;27.66;44.30
55801;BME280;41730;51.960;20.158;2023-06-19T09:10:59;100194.73;;;27.81;43.85
55801;BME280;41730;51.960;20.158;2023-06-19T09:13:32;100189.75;;;27.89;43.79
55801;BME280;41730;51.960;20.158;2023-06-19T09:16:07;100190.20;;;27.95;43.96
55801;BME280;41730;51.960;20.158;2023-06-19T09:18:46;100188.09;;;27.95;43.81
55801;BME280;41730;51.960;20.158;2023-06-19T09:21:19;100192.15;;;27.88;43.61
55801;BME280;41730;51.960;20.158;2023-06-19T09:23:52;100190.65;;;27.78;43.77
55801;BME280;41730;51.960;20.158;2023-06-19T09:26:24;100187.40;;;27.74;44.07
55801;BME280;41730;51.960;20.158;2023-06-19T09:28:57;100181.85;;;27.72;43.88
55801;BME280;41730;51.960;20.158;2023-06-19T09:31:35;100181.88;;;27.71;43.53
55801;BME280;41730;51.960;20.158;2023-06-19T09:34:08;100181.45;;;27.60;44.17
55801;BME280;41730;51.960;20.158;2023-06-19T09:36:40;100176.44;;;27.52;43.70
55801;BME280;41730;51.960;20.158;2023-06-19T09:39:14;100179.69;;;27.43;42.80
55801;BME280;41730;51.960;20.158;2023-06-19T09:41:48;100183.95;;;27.17;43.73
55801;BME280;41730;51.960;20.158;2023-06-19T09:44:23;100187.42;;;26.99;44.13
55801;BME280;41730;51.960;20.158;2023-06-19T09:46:56;100192.86;;;26.90;44.42
55801;BME280;41730;51.960;20.158;2023-06-19T09:49:28;100192.05;;;26.89;44.46
55801;BME280;41730;51.960;20.158;2023-06-19T09:52:04;100189.60;;;26.90;44.50
55801;BME280;41730;51.960;20.158;2023-06-19T09:54:37;100191.81;;;26.88;44.99
55801;BME280;41730;51.960;20.158;2023-06-19T09:57:11;100188.82;;;26.77;45.22
55801;BME280;41730;51.960;20.158;2023-06-19T09:59:44;100190.36;;;26.74;45.61
55801;BME280;41730;51.960;20.158;2023-06-19T10:02:18;100189.14;;;26.80;45.89
55801;BME280;41730;51.960;20.158;2023-06-19T10:04:54;100191.52;;;26.86;45.99
55801;BME280;41730;51.960;20.158;2023-06-19T10:07:33;100190.05;;;26.98;45.61
55801;BME280;41730;51.960;20.158;2023-06-19T10:10:08;100187.84;;;27.25;45.13
55801;BME280;41730;51.960;20.158;2023-06-19T10:12:42;100186.48;;;27.37;44.96
55801;BME280;41730;51.960;20.158;2023-06-19T10:15:18;100181.98;;;27.54;44.86
55801;BME280;41730;51.960;20.158;2023-06-19T10:17:52;100180.13;;;27.75;44.44
55801;BME280;41730;51.960;20.158;2023-06-19T10:20:27;100171.08;;;27.99;43.65
55801;BME280;41730;51.960;20.158;2023-06-19T10:23:05;100167.56;;;28.14;44.04
55801;BME280;41730;51.960;20.158;2023-06-19T10:25:39;100170.50;;;28.13;43.61
55801;BME280;41730;51.960;20.158;2023-06-19T10:28:20;100174.23;;;28.06;43.75
55801;BME280;41730;51.960;20.158;2023-06-19T10:30:58;100168.69;;;28.14;43.82
55801;BME280;41730;51.960;20.158;2023-06-19T10:33:32;100161.41;;;28.35;43.04
55801;BME280;41730;51.960;20.158;2023-06-19T10:36:15;100162.38;;;28.38;42.93
55801;BME280;41730;51.960;20.158;2023-06-19T10:38:48;100156.88;;;28.42;42.77
55801;BME280;41730;51.960;20.158;2023-06-19T10:41:21;100158.02;;;28.45;43.05
55801;BME280;41730;51.960;20.158;2023-06-19T10:43:58;100158.48;;;28.34;42.65
55801;BME280;41730;51.960;20.158;2023-06-19T10:46:33;100155.13;;;28.11;43.18
55801;BME280;41730;51.960;20.158;2023-06-19T10:49:07;100153.87;;;28.04;42.98
55801;BME280;41730;51.960;20.158;2023-06-19T10:52:08;100152.19;;;28.01;42.66
55801;BME280;41730;51.960;20.158;2023-06-19T10:54:58;100154.74;;;28.07;43.16
55801;BME280;41730;51.960;20.158;2023-06-19T10:57:31;100154.17;;;28.29;43.26
55801;BME280;41730;51.960;20.158;2023-06-19T11:00:04;100155.90;;;28.53;42.72
55801;BME280;41730;51.960;20.158;2023-06-19T11:02:42;100151.19;;;28.45;42.69
55801;BME280;41730;51.960;20.158;2023-06-19T11:05:15;100146.00;;;28.41;42.63
55801;BME280;41730;51.960;20.158;2023-06-19T11:07:54;100148.45;;;28.55;42.39
55801;BME280;41730;51.960;20.158;2023-06-19T11:10:28;100151.17;;;28.56;42.18
55801;BME280;41730;51.960;20.158;2023-06-19T11:13:02;100142.67;;;28.39;42.33
55801;BME280;41730;51.960;20.158;2023-06-19T11:15:34;100148.08;;;28.26;42.45
55801;BME280;41730;51.960;20.158;2023-06-19T11:18:07;100145.99;;;28.44;42.20
55801;BME280;41730;51.960;20.158;2023-06-19T11:20:46;100147.73;;;28.44;41.85
55801;BME280;41730;51.960;20.158;2023-06-19T11:23:27;100147.68;;;28.32;41.74
55801;BME280;41730;51.960;20.158;2023-06-19T11:26:05;100147.13;;;28.31;41.08
55801;BME280;41730;51.960;20.158;2023-06-19T11:28:37;100143.77;;;28.24;39.95
55801;BME280;41730;51.960;20.158;2023-06-19T11:31:09;100141.27;;;28.16;39.58
55801;BME280;41730;51.960;20.158;2023-06-19T11:33:41;100140.89;;;28.11;39.44
55801;BME280;41730;51.960;20.158;2023-06-19T11:36:13;100139.91;;;27.94;39.95
55801;BME280;41730;51.960;20.158;2023-06-19T11:38:46;100144.29;;;27.72;40.54
55801;BME280;41730;51.960;20.158;2023-06-19T11:41:26;100142.45;;;27.61;41.09
55801;BME280;41730;51.960;20.158;2023-06-19T11:44:03;100138.86;;;27.56;41.18
55801;BME280;41730;51.960;20.158;2023-06-19T11:46:35;100139.33;;;27.58;41.17
55801;BME280;41730;51.960;20.158;2023-06-19T11:49:11;100129.97;;;27.61;41.14
55801;BME280;41730;51.960;20.158;2023-06-19T11:51:44;100131.15;;;27.68;40.63
55801;BME280;41730;51.960;20.158;2023-06-19T11:54:16;100127.34;;;27.70;40.85
55801;BME280;41730;51.960;20.158;2023-06-19T11:56:49;100123.02;;;27.67;41.09
55801;BME280;41730;51.960;20.158;2023-06-19T11:59:21;100122.95;;;27.67;41.32
55801;BME280;41730;51.960;20.158;2023-06-19T12:01:53;100125.23;;;27.72;41.25
55801;BME280;41730;51.960;20.158;2023-06-19T12:04:27;100118.65;;;27.70;40.94
55801;BME280;41730;51.960;20.158;2023-06-19T12:06:59;100124.61;;;27.60;41.06
55801;BME280;41730;51.960;20.158;2023-06-19T12:09:31;100128.19;;;27.55;41.07
55801;BME280;41730;51.960;20.158;2023-06-19T12:12:07;100130.05;;;27.48;41.46
55801;BME280;41730;51.960;20.158;2023-06-19T12:14:38;100128.31;;;27.56;40.51
55801;BME280;41730;51.960;20.158;2023-06-19T12:17:11;100121.12;;;27.61;39.57
55801;BME280;41730;51.960;20.158;2023-06-19T12:19:44;100116.40;;;27.75;39.29
55801;BME280;41730;51.960;20.158;2023-06-19T12:22:17;100116.11;;;27.79;39.67
55801;BME280;41730;51.960;20.158;2023-06-19T12:24:49;100116.49;;;27.88;39.39
55801;BME280;41730;51.960;20.158;2023-06-19T12:27:21;100116.67;;;28.04;38.84
55801;BME280;41730;51.960;20.158;2023-06-19T12:29:54;100115.63;;;28.13;38.94
55801;BME280;41730;51.960;20.158;2023-06-19T12:32:25;100116.16;;;28.12;38.85
55801;BME280;41730;51.960;20.158;2023-06-19T12:34:57;100118.17;;;28.13;39.02
55801;BME280;41730;51.960;20.158;2023-06-19T12:37:29;100117.05;;;28.20;38.73
55801;BME280;41730;51.960;20.158;2023-06-19T12:40:01;100110.66;;;28.14;38.51
55801;BME280;41730;51.960;20.158;2023-06-19T12:42:38;100106.75;;;28.02;38.36
55801;BME280;41730;51.960;20.158;2023-06-19T12:45:12;100109.41;;;27.97;37.80
55801;BME280;41730;51.960;20.158;2023-06-19T12:47:44;100106.46;;;28.04;37.95
55801;BME280;41730;51.960;20.158;2023-06-19T12:50:16;100101.61;;;28.05;38.42
55801;BME280;41730;51.960;20.158;2023-06-19T12:52:50;100101.98;;;28.08;38.64
55801;BME280;41730;51.960;20.158;2023-06-19T12:55:22;100096.44;;;28.09;38.57
55801;BME280;41730;51.960;20.158;2023-06-19T12:57:53;100091.11;;;28.14;38.32
55801;BME280;41730;51.960;20.158;2023-06-19T13:00:25;100092.30;;;28.18;38.00
55801;BME280;41730;51.960;20.158;2023-06-19T13:02:57;100091.09;;;28.34;37.74
55801;BME280;41730;51.960;20.158;2023-06-19T13:05:30;100092.90;;;28.48;37.52
55801;BME280;41730;51.960;20.158;2023-06-19T13:08:04;100094.30;;;28.42;37.63
55801;BME280;41730;51.960;20.158;2023-06-19T13:10:38;100089.30;;;28.41;37.61
55801;BME280;41730;51.960;20.158;2023-06-19T13:13:10;100085.62;;;28.41;37.68